sensor_id;sensor_type;location;lat;lon;timestamp;P1;durP1;ratioP1;P2;durP2;ratioP2
21505;SDS011;10914;48.886;9.394;2024-03-08T00:01:04;46.97;;;42.58;;
21505;SDS011;10914;48.886;9.394;2024-03-08T00:03:31;46.45;;;41.72;;
21505;SDS011;10914;48.886;9.394;2024-03-08T00:05:57;45.40;;;41.08;;
21505;SDS011;10914;48.886;9.394;2024-03-08T00:08:22;48.90;;;43.72;;
21505;SDS011;10914;48.886;9.394;2024-03-08T00:10:47;46.08;;;41.65;;
21505;SDS011;10914;48.886;9.394;2024-03-08T00:13:13;47.17;;;42.45;;
21505;SDS011;10914;48.886;9.394;2024-03-08T00:15:38;49.05;;;43.95;;
21505;SDS011;10914;48.886;9.394;2024-03-08T00:18:03;46.40;;;41.80;;
21505;SDS011;10914;48.886;9.394;2024-03-08T00:20:28;46.92;;;42.33;;
21505;SDS011;10914;48.886;9.394;2024-03-08T00:22:54;46.80;;;42.20;;
21505;SDS011;10914;48.886;9.394;2024-03-08T00:25:19;48.17;;;43.17;;
21505;SDS011;10914;48.886;9.394;2024-03-08T00:27:44;49.85;;;44.58;;
21505;SDS011;10914;48.886;9.394;2024-03-08T00:30:10;48.75;;;43.85;;
21505;SDS011;10914;48.886;9.394;2024-03-08T00:32:38;48.78;;;43.88;;
21505;SDS011;10914;48.886;9.394;2024-03-08T00:35:03;48.27;;;43.37;;
21505;SDS011;10914;48.886;9.394;2024-03-08T00:37:28;47.42;;;42.67;;
21505;SDS011;10914;48.886;9.394;2024-03-08T00:39:53;48.80;;;44.00;;
21505;SDS011;10914;48.886;9.394;2024-03-08T00:42:19;48.42;;;43.53;;
21505;SDS011;10914;48.886;9.394;2024-03-08T00:44:44;51.60;;;46.13;;
21505;SDS011;10914;48.886;9.394;2024-03-08T00:47:09;48.22;;;43.35;;
21505;SDS011;10914;48.886;9.394;2024-03-08T00:49:35;47.53;;;42.53;;
21505;SDS011;10914;48.886;9.394;2024-03-08T00:52:01;49.80;;;44.15;;
21505;SDS011;10914;48.886;9.394;2024-03-08T00:54:26;47.22;;;42.75;;
21505;SDS011;10914;48.886;9.394;2024-03-08T00:56:52;46.50;;;42.08;;
21505;SDS011;10914;48.886;9.394;2024-03-08T00:59:17;47.03;;;42.27;;
21505;SDS011;10914;48.886;9.394;2024-03-08T01:01:42;47.43;;;42.77;;
21505;SDS011;10914;48.886;9.394;2024-03-08T01:04:08;48.15;;;43.33;;
21505;SDS011;10914;48.886;9.394;2024-03-08T01:06:34;48.45;;;43.67;;
21505;SDS011;10914;48.886;9.394;2024-03-08T01:08:59;46.95;;;42.35;;
21505;SDS011;10914;48.886;9.394;2024-03-08T01:11:24;47.70;;;42.92;;
21505;SDS011;10914;48.886;9.394;2024-03-08T01:13:50;48.42;;;43.67;;
21505;SDS011;10914;48.886;9.394;2024-03-08T01:16:15;50.72;;;45.30;;
21505;SDS011;10914;48.886;9.394;2024-03-08T01:18:41;48.22;;;43.42;;
21505;SDS011;10914;48.886;9.394;2024-03-08T01:21:06;48.22;;;42.97;;
21505;SDS011;10914;48.886;9.394;2024-03-08T01:23:32;48.63;;;44.08;;
21505;SDS011;10914;48.886;9.394;2024-03-08T01:25:57;50.87;;;45.93;;
21505;SDS011;10914;48.886;9.394;2024-03-08T01:28:23;49.50;;;44.47;;
21505;SDS011;10914;48.886;9.394;2024-03-08T01:30:48;49.65;;;44.50;;
21505;SDS011;10914;48.886;9.394;2024-03-08T01:33:15;47.85;;;42.95;;
21505;SDS011;10914;48.886;9.394;2024-03-08T01:35:40;46.60;;;41.60;;
21505;SDS011;10914;48.886;9.394;2024-03-08T01:38:06;47.97;;;43.08;;
21505;SDS011;10914;48.886;9.394;2024-03-08T01:40:31;47.72;;;42.95;;
21505;SDS011;10914;48.886;9.394;2024-03-08T01:42:56;46.23;;;41.23;;
21505;SDS011;10914;48.886;9.394;2024-03-08T01:45:22;48.67;;;43.90;;
21505;SDS011;10914;48.886;9.394;2024-03-08T01:47:47;50.33;;;45.25;;
21505;SDS011;10914;48.886;9.394;2024-03-08T01:50:13;49.97;;;44.78;;
21505;SDS011;10914;48.886;9.394;2024-03-08T01:52:38;47.47;;;42.80;;
21505;SDS011;10914;48.886;9.394;2024-03-08T01:55:04;47.10;;;42.28;;
21505;SDS011;10914;48.886;9.394;2024-03-08T01:57:32;46.13;;;41.53;;
21505;SDS011;10914;48.886;9.394;2024-03-08T02:00:00;45.40;;;40.90;;
21505;SDS011;10914;48.886;9.394;2024-03-08T02:02:33;47.08;;;42.38;;
21505;SDS011;10914;48.886;9.394;2024-03-08T02:05:01;45.53;;;40.92;;
21505;SDS011;10914;48.886;9.394;2024-03-08T02:07:28;45.83;;;41.15;;
21505;SDS011;10914;48.886;9.394;2024-03-08T02:09:53;46.58;;;41.63;;
21505;SDS011;10914;48.886;9.394;2024-03-08T02:12:18;43.00;;;38.72;;
21505;SDS011;10914;48.886;9.394;2024-03-08T02:14:45;44.40;;;40.13;;
21505;SDS011;10914;48.886;9.394;2024-03-08T02:17:10;45.72;;;41.33;;
21505;SDS011;10914;48.886;9.394;2024-03-08T02:19:36;47.95;;;43.45;;
21505;SDS011;10914;48.886;9.394;2024-03-08T02:22:02;45.25;;;41.00;;
21505;SDS011;10914;48.886;9.394;2024-03-08T02:24:29;47.03;;;42.60;;
21505;SDS011;10914;48.886;9.394;2024-03-08T02:26:55;45.50;;;40.97;;
21505;SDS011;10914;48.886;9.394;2024-03-08T02:29:21;46.13;;;41.53;;
21505;SDS011;10914;48.886;9.394;2024-03-08T02:31:47;45.35;;;40.95;;
21505;SDS011;10914;48.886;9.394;2024-03-08T02:34:12;43.47;;;39.30;;
21505;SDS011;10914;48.886;9.394;2024-03-08T02:36:37;44.40;;;39.80;;
21505;SDS011;10914;48.886;9.394;2024-03-08T02:39:02;44.78;;;40.30;;
21505;SDS011;10914;48.886;9.394;2024-03-08T02:41:28;44.88;;;40.58;;
21505;SDS011;10914;48.886;9.394;2024-03-08T02:43:53;46.05;;;41.35;;
21505;SDS011;10914;48.886;9.394;2024-03-08T02:46:20;44.83;;;40.42;;
21505;SDS011;10914;48.886;9.394;2024-03-08T02:48:45;46.03;;;41.22;;
21505;SDS011;10914;48.886;9.394;2024-03-08T02:51:11;44.17;;;39.95;;
21505;SDS011;10914;48.886;9.394;2024-03-08T02:53:36;44.15;;;39.78;;
21505;SDS011;10914;48.886;9.394;2024-03-08T02:56:02;43.95;;;39.50;;
21505;SDS011;10914;48.886;9.394;2024-03-08T02:58:28;43.55;;;39.50;;
21505;SDS011;10914;48.886;9.394;2024-03-08T03:00:53;43.37;;;39.20;;
21505;SDS011;10914;48.886;9.394;2024-03-08T03:03:18;45.28;;;40.95;;
21505;SDS011;10914;48.886;9.394;2024-03-08T03:05:43;45.35;;;41.03;;
21505;SDS011;10914;48.886;9.394;2024-03-08T03:08:08;45.08;;;40.70;;
21505;SDS011;10914;48.886;9.394;2024-03-08T03:10:34;45.93;;;41.43;;
21505;SDS011;10914;48.886;9.394;2024-03-08T03:12:59;44.17;;;39.90;;
21505;SDS011;10914;48.886;9.394;2024-03-08T03:15:24;46.88;;;42.17;;
21505;SDS011;10914;48.886;9.394;2024-03-08T03:17:50;47.90;;;43.33;;
21505;SDS011;10914;48.886;9.394;2024-03-08T03:20:16;46.13;;;41.63;;
21505;SDS011;10914;48.886;9.394;2024-03-08T03:22:47;45.10;;;40.90;;
21505;SDS011;10914;48.886;9.394;2024-03-08T03:25:16;45.55;;;41.00;;
21505;SDS011;10914;48.886;9.394;2024-03-08T03:27:48;46.53;;;41.78;;
21505;SDS011;10914;48.886;9.394;2024-03-08T03:30:13;45.67;;;41.20;;
21505;SDS011;10914;48.886;9.394;2024-03-08T03:32:46;45.58;;;40.85;;
21505;SDS011;10914;48.886;9.394;2024-03-08T03:35:12;46.45;;;41.90;;
21505;SDS011;10914;48.886;9.394;2024-03-08T03:37:37;45.70;;;41.33;;
21505;SDS011;10914;48.886;9.394;2024-03-08T03:40:04;47.05;;;42.35;;
21505;SDS011;10914;48.886;9.394;2024-03-08T03:42:29;46.13;;;41.63;;
21505;SDS011;10914;48.886;9.394;2024-03-08T03:44:54;46.58;;;41.90;;
21505;SDS011;10914;48.886;9.394;2024-03-08T03:47:20;47.47;;;42.60;;
21505;SDS011;10914;48.886;9.394;2024-03-08T03:49:45;46.42;;;42.08;;
21505;SDS011;10914;48.886;9.394;2024-03-08T03:52:10;48.47;;;43.60;;
21505;SDS011;10914;48.886;9.394;2024-03-08T03:54:35;46.67;;;41.97;;
21505;SDS011;10914;48.886;9.394;2024-03-08T03:57:00;47.42;;;42.83;;
21505;SDS011;10914;48.886;9.394;2024-03-08T03:59:29;46.55;;;42.15;;
21505;SDS011;10914;48.886;9.394;2024-03-08T04:01:54;47.58;;;42.83;;
21505;SDS011;10914;48.886;9.394;2024-03-08T04:04:19;45.42;;;41.05;;
21505;SDS011;10914;48.886;9.394;2024-03-08T04:06:44;46.28;;;41.50;;
21505;SDS011;10914;48.886;9.394;2024-03-08T04:09:10;47.22;;;42.45;;
21505;SDS011;10914;48.886;9.394;2024-03-08T04:11:36;47.28;;;42.78;;
21505;SDS011;10914;48.886;9.394;2024-03-08T04:14:01;47.67;;;43.10;;
21505;SDS011;10914;48.886;9.394;2024-03-08T04:16:26;43.38;;;39.22;;
21505;SDS011;10914;48.886;9.394;2024-03-08T04:18:52;46.60;;;41.88;;
21505;SDS011;10914;48.886;9.394;2024-03-08T04:21:17;46.33;;;41.70;;
21505;SDS011;10914;48.886;9.394;2024-03-08T04:23:42;47.15;;;42.53;;
21505;SDS011;10914;48.886;9.394;2024-03-08T04:26:10;48.65;;;43.97;;
21505;SDS011;10914;48.886;9.394;2024-03-08T04:28:35;48.80;;;43.97;;
21505;SDS011;10914;48.886;9.394;2024-03-08T04:31:02;47.65;;;42.95;;
21505;SDS011;10914;48.886;9.394;2024-03-08T04:33:27;47.83;;;43.10;;
21505;SDS011;10914;48.886;9.394;2024-03-08T04:35:53;46.75;;;42.17;;
21505;SDS011;10914;48.886;9.394;2024-03-08T04:38:18;47.38;;;42.78;;
21505;SDS011;10914;48.886;9.394;2024-03-08T04:40:43;46.20;;;41.67;;
21505;SDS011;10914;48.886;9.394;2024-03-08T04:43:08;46.72;;;41.97;;
21505;SDS011;10914;48.886;9.394;2024-03-08T04:45:35;46.28;;;41.60;;
21505;SDS011;10914;48.886;9.394;2024-03-08T04:48:01;46.70;;;42.13;;
21505;SDS011;10914;48.886;9.394;2024-03-08T04:50:26;47.35;;;42.50;;
21505;SDS011;10914;48.886;9.394;2024-03-08T04:52:53;45.15;;;40.53;;
21505;SDS011;10914;48.886;9.394;2024-03-08T04:55:19;46.50;;;41.97;;
21505;SDS011;10914;48.886;9.394;2024-03-08T04:57:46;47.03;;;42.42;;
21505;SDS011;10914;48.886;9.394;2024-03-08T05:00:14;48.15;;;43.35;;
21505;SDS011;10914;48.886;9.394;2024-03-08T05:02:40;48.05;;;42.92;;
21505;SDS011;10914;48.886;9.394;2024-03-08T05:05:06;48.88;;;43.83;;
21505;SDS011;10914;48.886;9.394;2024-03-08T05:07:31;46.53;;;41.72;;
21505;SDS011;10914;48.886;9.394;2024-03-08T05:09:57;47.90;;;42.92;;
21505;SDS011;10914;48.886;9.394;2024-03-08T05:12:23;45.30;;;40.85;;
21505;SDS011;10914;48.886;9.394;2024-03-08T05:14:48;48.55;;;43.55;;
21505;SDS011;10914;48.886;9.394;2024-03-08T05:17:14;46.58;;;41.95;;
21505;SDS011;10914;48.886;9.394;2024-03-08T05:19:40;48.83;;;43.75;;
21505;SDS011;10914;48.886;9.394;2024-03-08T05:22:05;51.05;;;45.85;;
21505;SDS011;10914;48.886;9.394;2024-03-08T05:24:30;51.08;;;45.63;;
21505;SDS011;10914;48.886;9.394;2024-03-08T05:26:55;49.85;;;44.50;;
21505;SDS011;10914;48.886;9.394;2024-03-08T05:29:20;48.58;;;43.45;;
21505;SDS011;10914;48.886;9.394;2024-03-08T05:31:46;50.90;;;45.50;;
21505;SDS011;10914;48.886;9.394;2024-03-08T05:34:12;48.97;;;43.78;;
21505;SDS011;10914;48.886;9.394;2024-03-08T05:36:39;48.65;;;43.60;;
21505;SDS011;10914;48.886;9.394;2024-03-08T05:39:04;50.33;;;44.80;;
21505;SDS011;10914;48.886;9.394;2024-03-08T05:41:31;51.28;;;45.72;;
21505;SDS011;10914;48.886;9.394;2024-03-08T05:43:56;48.60;;;43.50;;
21505;SDS011;10914;48.886;9.394;2024-03-08T05:46:21;65.47;;;49.35;;
21505;SDS011;10914;48.886;9.394;2024-03-08T05:48:47;52.83;;;47.22;;
21505;SDS011;10914;48.886;9.394;2024-03-08T05:51:12;53.55;;;47.78;;
21505;SDS011;10914;48.886;9.394;2024-03-08T05:53:37;51.13;;;45.90;;
21505;SDS011;10914;48.886;9.394;2024-03-08T05:56:02;53.40;;;47.65;;
21505;SDS011;10914;48.886;9.394;2024-03-08T05:58:28;53.78;;;48.15;;
21505;SDS011;10914;48.886;9.394;2024-03-08T06:00:55;52.83;;;47.35;;
21505;SDS011;10914;48.886;9.394;2024-03-08T06:03:20;54.63;;;48.78;;
21505;SDS011;10914;48.886;9.394;2024-03-08T06:05:46;55.17;;;49.45;;
21505;SDS011;10914;48.886;9.394;2024-03-08T06:08:12;65.55;;;59.45;;
21505;SDS011;10914;48.886;9.394;2024-03-08T06:10:39;51.40;;;45.85;;
21505;SDS011;10914;48.886;9.394;2024-03-08T06:13:04;54.20;;;48.38;;
21505;SDS011;10914;48.886;9.394;2024-03-08T06:15:30;53.03;;;46.38;;
21505;SDS011;10914;48.886;9.394;2024-03-08T06:17:55;53.42;;;48.08;;
21505;SDS011;10914;48.886;9.394;2024-03-08T06:20:20;53.75;;;47.97;;
21505;SDS011;10914;48.886;9.394;2024-03-08T06:22:46;54.33;;;48.67;;
21505;SDS011;10914;48.886;9.394;2024-03-08T06:25:11;54.58;;;48.95;;
21505;SDS011;10914;48.886;9.394;2024-03-08T06:27:39;53.60;;;48.03;;
21505;SDS011;10914;48.886;9.394;2024-03-08T06:30:04;53.28;;;47.80;;
21505;SDS011;10914;48.886;9.394;2024-03-08T06:32:30;57.30;;;51.38;;
21505;SDS011;10914;48.886;9.394;2024-03-08T06:34:55;58.17;;;52.25;;
21505;SDS011;10914;48.886;9.394;2024-03-08T06:37:20;55.65;;;49.92;;
21505;SDS011;10914;48.886;9.394;2024-03-08T06:39:47;55.30;;;49.15;;
21505;SDS011;10914;48.886;9.394;2024-03-08T06:42:12;53.10;;;47.47;;
21505;SDS011;10914;48.886;9.394;2024-03-08T06:44:37;54.45;;;48.47;;
21505;SDS011;10914;48.886;9.394;2024-03-08T06:47:03;50.92;;;45.25;;
21505;SDS011;10914;48.886;9.394;2024-03-08T06:49:31;50.92;;;45.55;;
21505;SDS011;10914;48.886;9.394;2024-03-08T06:51:56;49.72;;;44.33;;
21505;SDS011;10914;48.886;9.394;2024-03-08T06:54:22;50.83;;;45.53;;
21505;SDS011;10914;48.886;9.394;2024-03-08T06:56:47;48.13;;;43.03;;
21505;SDS011;10914;48.886;9.394;2024-03-08T06:59:13;49.65;;;44.45;;
21505;SDS011;10914;48.886;9.394;2024-03-08T07:01:38;52.10;;;46.57;;
21505;SDS011;10914;48.886;9.394;2024-03-08T07:04:03;49.72;;;44.38;;
21505;SDS011;10914;48.886;9.394;2024-03-08T07:06:30;53.00;;;47.38;;
21505;SDS011;10914;48.886;9.394;2024-03-08T07:08:58;49.28;;;44.35;;
21505;SDS011;10914;48.886;9.394;2024-03-08T07:11:24;51.00;;;45.97;;
21505;SDS011;10914;48.886;9.394;2024-03-08T07:13:49;64.53;;;58.87;;
21505;SDS011;10914;48.886;9.394;2024-03-08T07:16:14;53.15;;;48.15;;
21505;SDS011;10914;48.886;9.394;2024-03-08T07:18:40;50.00;;;45.38;;
21505;SDS011;10914;48.886;9.394;2024-03-08T07:21:08;51.15;;;45.88;;
21505;SDS011;10914;48.886;9.394;2024-03-08T07:23:33;48.65;;;43.90;;
21505;SDS011;10914;48.886;9.394;2024-03-08T07:26:14;51.35;;;46.55;;
21505;SDS011;10914;48.886;9.394;2024-03-08T07:28:39;52.38;;;47.63;;
21505;SDS011;10914;48.886;9.394;2024-03-08T07:31:05;51.92;;;46.88;;
21505;SDS011;10914;48.886;9.394;2024-03-08T07:33:42;51.85;;;46.80;;
21505;SDS011;10914;48.886;9.394;2024-03-08T07:36:07;50.83;;;46.05;;
21505;SDS011;10914;48.886;9.394;2024-03-08T07:38:33;50.00;;;45.33;;
21505;SDS011;10914;48.886;9.394;2024-03-08T07:40:58;50.28;;;45.65;;
21505;SDS011;10914;48.886;9.394;2024-03-08T07:43:23;51.83;;;46.83;;
21505;SDS011;10914;48.886;9.394;2024-03-08T07:45:49;49.40;;;44.70;;
21505;SDS011;10914;48.886;9.394;2024-03-08T07:48:14;50.53;;;45.83;;
21505;SDS011;10914;48.886;9.394;2024-03-08T07:50:39;50.33;;;45.53;;
21505;SDS011;10914;48.886;9.394;2024-03-08T07:53:05;49.92;;;45.13;;
21505;SDS011;10914;48.886;9.394;2024-03-08T07:55:33;48.55;;;43.65;;
21505;SDS011;10914;48.886;9.394;2024-03-08T07:58:00;48.28;;;43.58;;
21505;SDS011;10914;48.886;9.394;2024-03-08T08:00:25;45.85;;;41.25;;
21505;SDS011;10914;48.886;9.394;2024-03-08T08:02:52;46.33;;;41.78;;
21505;SDS011;10914;48.886;9.394;2024-03-08T08:05:17;45.95;;;41.38;;
21505;SDS011;10914;48.886;9.394;2024-03-08T08:07:46;45.53;;;41.22;;
21505;SDS011;10914;48.886;9.394;2024-03-08T08:10:12;44.30;;;40.05;;
21505;SDS011;10914;48.886;9.394;2024-03-08T08:12:43;45.88;;;41.28;;
21505;SDS011;10914;48.886;9.394;2024-03-08T08:15:08;47.10;;;42.33;;
21505;SDS011;10914;48.886;9.394;2024-03-08T08:17:33;46.40;;;41.85;;
21505;SDS011;10914;48.886;9.394;2024-03-08T08:19:59;47.92;;;42.92;;
21505;SDS011;10914;48.886;9.394;2024-03-08T08:22:24;45.63;;;41.13;;
21505;SDS011;10914;48.886;9.394;2024-03-08T08:24:50;45.33;;;40.83;;
21505;SDS011;10914;48.886;9.394;2024-03-08T08:27:16;46.00;;;41.50;;
21505;SDS011;10914;48.886;9.394;2024-03-08T08:29:41;45.30;;;40.83;;
21505;SDS011;10914;48.886;9.394;2024-03-08T08:32:06;45.60;;;41.05;;
21505;SDS011;10914;48.886;9.394;2024-03-08T08:34:31;47.22;;;42.15;;
21505;SDS011;10914;48.886;9.394;2024-03-08T08:36:56;45.67;;;41.13;;
21505;SDS011;10914;48.886;9.394;2024-03-08T08:39:22;46.90;;;42.30;;
21505;SDS011;10914;48.886;9.394;2024-03-08T08:41:47;45.65;;;41.15;;
21505;SDS011;10914;48.886;9.394;2024-03-08T08:44:13;46.58;;;41.80;;
21505;SDS011;10914;48.886;9.394;2024-03-08T08:46:38;44.60;;;40.30;;
21505;SDS011;10914;48.886;9.394;2024-03-08T08:49:04;45.08;;;40.65;;
21505;SDS011;10914;48.886;9.394;2024-03-08T08:51:29;44.35;;;40.05;;
21505;SDS011;10914;48.886;9.394;2024-03-08T08:53:55;45.33;;;40.83;;
21505;SDS011;10914;48.886;9.394;2024-03-08T08:56:21;44.78;;;40.42;;
21505;SDS011;10914;48.886;9.394;2024-03-08T08:58:47;45.70;;;41.40;;
21505;SDS011;10914;48.886;9.394;2024-03-08T09:01:12;46.50;;;41.80;;
21505;SDS011;10914;48.886;9.394;2024-03-08T09:03:38;45.00;;;40.67;;
21505;SDS011;10914;48.886;9.394;2024-03-08T09:06:05;45.47;;;40.83;;
21505;SDS011;10914;48.886;9.394;2024-03-08T09:08:34;46.08;;;41.70;;
21505;SDS011;10914;48.886;9.394;2024-03-08T09:10:59;45.53;;;41.03;;
21505;SDS011;10914;48.886;9.394;2024-03-08T09:13:25;45.22;;;40.83;;
21505;SDS011;10914;48.886;9.394;2024-03-08T09:15:50;44.13;;;39.83;;
21505;SDS011;10914;48.886;9.394;2024-03-08T09:18:15;43.97;;;39.67;;
21505;SDS011;10914;48.886;9.394;2024-03-08T09:20:40;44.17;;;40.03;;
21505;SDS011;10914;48.886;9.394;2024-03-08T09:23:06;45.05;;;40.55;;
21505;SDS011;10914;48.886;9.394;2024-03-08T09:25:31;45.03;;;40.80;;
21505;SDS011;10914;48.886;9.394;2024-03-08T09:27:56;44.65;;;40.35;;
21505;SDS011;10914;48.886;9.394;2024-03-08T09:30:21;44.30;;;40.05;;
21505;SDS011;10914;48.886;9.394;2024-03-08T09:32:47;42.20;;;38.33;;
21505;SDS011;10914;48.886;9.394;2024-03-08T09:35:12;43.85;;;39.60;;
21505;SDS011;10914;48.886;9.394;2024-03-08T09:37:37;43.40;;;39.20;;
21505;SDS011;10914;48.886;9.394;2024-03-08T09:40:02;43.97;;;39.78;;
21505;SDS011;10914;48.886;9.394;2024-03-08T09:42:34;44.80;;;40.70;;
21505;SDS011;10914;48.886;9.394;2024-03-08T09:45:02;44.47;;;40.25;;
21505;SDS011;10914;48.886;9.394;2024-03-08T09:47:29;45.20;;;40.63;;
21505;SDS011;10914;48.886;9.394;2024-03-08T09:49:58;44.05;;;39.78;;
21505;SDS011;10914;48.886;9.394;2024-03-08T09:52:23;44.80;;;40.40;;
21505;SDS011;10914;48.886;9.394;2024-03-08T09:54:48;45.90;;;41.50;;
21505;SDS011;10914;48.886;9.394;2024-03-08T09:57:14;44.20;;;39.92;;
21505;SDS011;10914;48.886;9.394;2024-03-08T09:59:40;45.22;;;40.72;;
21505;SDS011;10914;48.886;9.394;2024-03-08T10:02:05;44.28;;;40.08;;
21505;SDS011;10914;48.886;9.394;2024-03-08T10:04:30;44.87;;;40.10;;
21505;SDS011;10914;48.886;9.394;2024-03-08T10:07:00;43.78;;;39.60;;
21505;SDS011;10914;48.886;9.394;2024-03-08T10:09:25;43.08;;;38.97;;
21505;SDS011;10914;48.886;9.394;2024-03-08T10:11:58;45.72;;;41.03;;
21505;SDS011;10914;48.886;9.394;2024-03-08T10:14:24;45.63;;;41.17;;
21505;SDS011;10914;48.886;9.394;2024-03-08T10:16:49;45.05;;;40.53;;
21505;SDS011;10914;48.886;9.394;2024-03-08T10:19:14;45.10;;;40.67;;
21505;SDS011;10914;48.886;9.394;2024-03-08T10:21:50;45.15;;;40.75;;
21505;SDS011;10914;48.886;9.394;2024-03-08T10:24:17;45.22;;;40.92;;
21505;SDS011;10914;48.886;9.394;2024-03-08T10:26:42;47.17;;;42.70;;
21505;SDS011;10914;48.886;9.394;2024-03-08T10:29:09;45.00;;;40.75;;
21505;SDS011;10914;48.886;9.394;2024-03-08T10:31:34;45.63;;;41.42;;
21505;SDS011;10914;48.886;9.394;2024-03-08T10:33:59;46.25;;;41.78;;
21505;SDS011;10914;48.886;9.394;2024-03-08T10:36:24;44.05;;;39.85;;
21505;SDS011;10914;48.886;9.394;2024-03-08T10:38:51;43.45;;;39.40;;
21505;SDS011;10914;48.886;9.394;2024-03-08T10:41:18;43.17;;;39.03;;
21505;SDS011;10914;48.886;9.394;2024-03-08T10:46:38;41.75;;;37.85;;
21505;SDS011;10914;48.886;9.394;2024-03-08T10:49:05;43.55;;;39.20;;
21505;SDS011;10914;48.886;9.394;2024-03-08T10:51:33;42.97;;;38.67;;
21505;SDS011;10914;48.886;9.394;2024-03-08T10:53:58;42.05;;;37.95;;
21505;SDS011;10914;48.886;9.394;2024-03-08T10:56:24;39.03;;;35.35;;
21505;SDS011;10914;48.886;9.394;2024-03-08T10:58:52;41.95;;;37.83;;
21505;SDS011;10914;48.886;9.394;2024-03-08T11:01:18;41.80;;;37.72;;
21505;SDS011;10914;48.886;9.394;2024-03-08T11:03:43;39.40;;;35.83;;
21505;SDS011;10914;48.886;9.394;2024-03-08T11:06:17;41.95;;;38.10;;
21505;SDS011;10914;48.886;9.394;2024-03-08T11:08:42;42.65;;;38.65;;
21505;SDS011;10914;48.886;9.394;2024-03-08T11:11:24;45.08;;;40.85;;
21505;SDS011;10914;48.886;9.394;2024-03-08T11:13:52;44.83;;;40.50;;
21505;SDS011;10914;48.886;9.394;2024-03-08T11:19:00;41.00;;;37.17;;
21505;SDS011;10914;48.886;9.394;2024-03-08T11:21:35;46.25;;;41.95;;
21505;SDS011;10914;48.886;9.394;2024-03-08T11:24:12;43.95;;;39.90;;
21505;SDS011;10914;48.886;9.394;2024-03-08T11:26:38;42.47;;;38.38;;
21505;SDS011;10914;48.886;9.394;2024-03-08T11:31:49;41.15;;;37.28;;
21505;SDS011;10914;48.886;9.394;2024-03-08T11:34:15;41.60;;;37.70;;
21505;SDS011;10914;48.886;9.394;2024-03-08T11:36:41;41.80;;;37.72;;
21505;SDS011;10914;48.886;9.394;2024-03-08T11:39:07;42.35;;;38.30;;
21505;SDS011;10914;48.886;9.394;2024-03-08T11:41:39;42.17;;;38.15;;
21505;SDS011;10914;48.886;9.394;2024-03-08T11:44:06;44.50;;;40.38;;
21505;SDS011;10914;48.886;9.394;2024-03-08T11:46:32;40.22;;;36.70;;
21505;SDS011;10914;48.886;9.394;2024-03-08T11:48:57;40.97;;;36.93;;
21505;SDS011;10914;48.886;9.394;2024-03-08T11:51:23;38.80;;;35.20;;
21505;SDS011;10914;48.886;9.394;2024-03-08T11:53:49;41.00;;;36.97;;
21505;SDS011;10914;48.886;9.394;2024-03-08T11:56:14;42.00;;;38.00;;
21505;SDS011;10914;48.886;9.394;2024-03-08T11:58:40;40.25;;;36.42;;
21505;SDS011;10914;48.886;9.394;2024-03-08T12:01:06;39.45;;;35.60;;
21505;SDS011;10914;48.886;9.394;2024-03-08T12:03:32;39.60;;;35.88;;
21505;SDS011;10914;48.886;9.394;2024-03-08T12:05:58;43.63;;;39.75;;
21505;SDS011;10914;48.886;9.394;2024-03-08T12:08:24;45.47;;;41.47;;
21505;SDS011;10914;48.886;9.394;2024-03-08T12:10:53;41.75;;;37.78;;
21505;SDS011;10914;48.886;9.394;2024-03-08T12:13:20;37.05;;;33.75;;
21505;SDS011;10914;48.886;9.394;2024-03-08T12:15:45;39.77;;;36.00;;
21505;SDS011;10914;48.886;9.394;2024-03-08T12:18:11;38.83;;;35.30;;
21505;SDS011;10914;48.886;9.394;2024-03-08T12:20:37;39.13;;;35.50;;
21505;SDS011;10914;48.886;9.394;2024-03-08T12:23:04;38.88;;;35.25;;
21505;SDS011;10914;48.886;9.394;2024-03-08T12:25:30;38.22;;;34.83;;
21505;SDS011;10914;48.886;9.394;2024-03-08T12:27:56;39.55;;;35.85;;
21505;SDS011;10914;48.886;9.394;2024-03-08T12:30:25;39.25;;;35.47;;
21505;SDS011;10914;48.886;9.394;2024-03-08T12:32:55;40.95;;;37.10;;
21505;SDS011;10914;48.886;9.394;2024-03-08T12:35:22;40.45;;;36.65;;
21505;SDS011;10914;48.886;9.394;2024-03-08T12:37:48;40.50;;;36.45;;
21505;SDS011;10914;48.886;9.394;2024-03-08T12:40:14;39.45;;;35.88;;
21505;SDS011;10914;48.886;9.394;2024-03-08T12:42:41;40.25;;;36.40;;
21505;SDS011;10914;48.886;9.394;2024-03-08T12:45:07;38.95;;;35.25;;
21505;SDS011;10914;48.886;9.394;2024-03-08T12:47:34;39.17;;;35.50;;
21505;SDS011;10914;48.886;9.394;2024-03-08T12:50:00;37.97;;;34.57;;
21505;SDS011;10914;48.886;9.394;2024-03-08T12:52:25;39.83;;;36.13;;
21505;SDS011;10914;48.886;9.394;2024-03-08T12:54:50;39.23;;;35.60;;
21505;SDS011;10914;48.886;9.394;2024-03-08T12:57:16;38.67;;;35.05;;
21505;SDS011;10914;48.886;9.394;2024-03-08T12:59:41;39.73;;;36.30;;
21505;SDS011;10914;48.886;9.394;2024-03-08T13:02:07;40.75;;;36.90;;
21505;SDS011;10914;48.886;9.394;2024-03-08T13:04:36;40.03;;;36.35;;
21505;SDS011;10914;48.886;9.394;2024-03-08T13:07:01;39.10;;;35.60;;
21505;SDS011;10914;48.886;9.394;2024-03-08T13:09:26;39.83;;;36.23;;
21505;SDS011;10914;48.886;9.394;2024-03-08T13:11:52;39.42;;;35.78;;
21505;SDS011;10914;48.886;9.394;2024-03-08T13:14:20;38.92;;;35.53;;
21505;SDS011;10914;48.886;9.394;2024-03-08T13:16:45;38.63;;;34.93;;
21505;SDS011;10914;48.886;9.394;2024-03-08T13:19:13;38.70;;;35.22;;
21505;SDS011;10914;48.886;9.394;2024-03-08T13:21:38;40.55;;;36.80;;
21505;SDS011;10914;48.886;9.394;2024-03-08T13:24:03;38.13;;;34.63;;
21505;SDS011;10914;48.886;9.394;2024-03-08T13:26:28;38.55;;;35.15;;
21505;SDS011;10914;48.886;9.394;2024-03-08T13:28:57;38.63;;;35.03;;
21505;SDS011;10914;48.886;9.394;2024-03-08T13:31:23;38.47;;;35.05;;
21505;SDS011;10914;48.886;9.394;2024-03-08T13:33:48;39.60;;;35.90;;
21505;SDS011;10914;48.886;9.394;2024-03-08T13:36:13;41.05;;;37.17;;
21505;SDS011;10914;48.886;9.394;2024-03-08T13:38:45;37.10;;;33.58;;
21505;SDS011;10914;48.886;9.394;2024-03-08T13:41:10;39.20;;;35.70;;
21505;SDS011;10914;48.886;9.394;2024-03-08T13:43:37;38.60;;;35.22;;
21505;SDS011;10914;48.886;9.394;2024-03-08T13:46:02;39.67;;;35.97;;
21505;SDS011;10914;48.886;9.394;2024-03-08T13:48:28;37.17;;;33.88;;
21505;SDS011;10914;48.886;9.394;2024-03-08T13:50:53;37.03;;;33.83;;
21505;SDS011;10914;48.886;9.394;2024-03-08T13:53:19;37.50;;;34.15;;
21505;SDS011;10914;48.886;9.394;2024-03-08T13:55:44;37.07;;;33.70;;
21505;SDS011;10914;48.886;9.394;2024-03-08T13:58:10;36.13;;;33.05;;
21505;SDS011;10914;48.886;9.394;2024-03-08T14:00:35;37.63;;;34.30;;
21505;SDS011;10914;48.886;9.394;2024-03-08T14:03:01;36.92;;;33.55;;
21505;SDS011;10914;48.886;9.394;2024-03-08T14:05:30;35.58;;;32.65;;
21505;SDS011;10914;48.886;9.394;2024-03-08T14:07:57;37.60;;;34.08;;
21505;SDS011;10914;48.886;9.394;2024-03-08T14:10:25;38.03;;;34.53;;
21505;SDS011;10914;48.886;9.394;2024-03-08T14:12:52;36.05;;;32.95;;
21505;SDS011;10914;48.886;9.394;2024-03-08T14:15:17;36.00;;;32.70;;
21505;SDS011;10914;48.886;9.394;2024-03-08T14:17:42;37.20;;;34.00;;
21505;SDS011;10914;48.886;9.394;2024-03-08T14:20:08;36.75;;;33.65;;
21505;SDS011;10914;48.886;9.394;2024-03-08T14:22:34;35.72;;;32.80;;